sensor_id;sensor_type;location;lat;lon;timestamp;P1;durP1;ratioP1;P2;durP2;ratioP2
22026;SDS011;11177;50.966;10.070;2023-02-28T00:00:27;6.95;;;4.70;;
22026;SDS011;11177;50.966;10.070;2023-02-28T00:02:54;6.65;;;4.60;;
22026;SDS011;11177;50.966;10.070;2023-02-28T00:05:21;7.53;;;4.00;;
22026;SDS011;11177;50.966;10.070;2023-02-28T00:07:49;6.68;;;4.38;;
22026;SDS011;11177;50.966;10.070;2023-02-28T00:10:17;6.60;;;4.50;;
22026;SDS011;11177;50.966;10.070;2023-02-28T00:12:47;7.72;;;4.40;;
22026;SDS011;11177;50.966;10.070;2023-02-28T00:15:14;5.25;;;3.75;;
22026;SDS011;11177;50.966;10.070;2023-02-28T00:17:41;6.20;;;3.75;;
22026;SDS011;11177;50.966;10.070;2023-02-28T00:20:08;5.43;;;3.35;;
22026;SDS011;11177;50.966;10.070;2023-02-28T00:22:36;7.53;;;3.92;;
22026;SDS011;11177;50.966;10.070;2023-02-28T00:25:22;5.60;;;3.70;;
22026;SDS011;11177;50.966;10.070;2023-02-28T00:27:50;7.05;;;3.95;;
22026;SDS011;11177;50.966;10.070;2023-02-28T00:30:18;6.25;;;3.78;;
22026;SDS011;11177;50.966;10.070;2023-02-28T00:32:45;5.88;;;3.83;;
22026;SDS011;11177;50.966;10.070;2023-02-28T00:35:12;6.72;;;3.75;;
22026;SDS011;11177;50.966;10.070;2023-02-28T00:37:39;6.28;;;3.67;;
22026;SDS011;11177;50.966;10.070;2023-02-28T00:40:07;7.72;;;3.97;;
22026;SDS011;11177;50.966;10.070;2023-02-28T00:42:35;6.10;;;3.60;;
22026;SDS011;11177;50.966;10.070;2023-02-28T00:45:03;6.30;;;3.80;;
22026;SDS011;11177;50.966;10.070;2023-02-28T00:47:31;6.30;;;3.90;;
22026;SDS011;11177;50.966;10.070;2023-02-28T00:49:58;6.10;;;3.85;;
22026;SDS011;11177;50.966;10.070;2023-02-28T00:52:25;5.15;;;3.70;;
22026;SDS011;11177;50.966;10.070;2023-02-28T00:54:52;5.57;;;3.72;;
22026;SDS011;11177;50.966;10.070;2023-02-28T00:57:18;7.47;;;3.90;;
22026;SDS011;11177;50.966;10.070;2023-02-28T00:59:45;5.75;;;3.88;;
22026;SDS011;11177;50.966;10.070;2023-02-28T01:02:12;5.88;;;4.03;;
22026;SDS011;11177;50.966;10.070;2023-02-28T01:04:39;6.35;;;3.58;;
22026;SDS011;11177;50.966;10.070;2023-02-28T01:07:06;5.82;;;3.83;;
22026;SDS011;11177;50.966;10.070;2023-02-28T01:09:32;7.25;;;4.05;;
22026;SDS011;11177;50.966;10.070;2023-02-28T01:11:59;5.40;;;3.75;;
22026;SDS011;11177;50.966;10.070;2023-02-28T01:14:26;5.72;;;3.65;;
22026;SDS011;11177;50.966;10.070;2023-02-28T01:16:52;6.18;;;4.05;;
22026;SDS011;11177;50.966;10.070;2023-02-28T01:19:19;7.35;;;4.10;;
22026;SDS011;11177;50.966;10.070;2023-02-28T01:21:46;6.00;;;3.60;;
22026;SDS011;11177;50.966;10.070;2023-02-28T01:24:12;5.07;;;3.53;;
22026;SDS011;11177;50.966;10.070;2023-02-28T01:26:39;5.70;;;3.67;;
22026;SDS011;11177;50.966;10.070;2023-02-28T01:29:06;4.78;;;3.63;;
22026;SDS011;11177;50.966;10.070;2023-02-28T01:31:33;5.65;;;3.50;;
22026;SDS011;11177;50.966;10.070;2023-02-28T01:33:59;5.90;;;3.60;;
22026;SDS011;11177;50.966;10.070;2023-02-28T01:36:26;6.43;;;3.88;;
22026;SDS011;11177;50.966;10.070;2023-02-28T01:38:53;7.25;;;4.03;;
22026;SDS011;11177;50.966;10.070;2023-02-28T01:41:21;6.78;;;3.70;;
22026;SDS011;11177;50.966;10.070;2023-02-28T01:43:54;5.10;;;3.65;;
22026;SDS011;11177;50.966;10.070;2023-02-28T01:48:51;6.05;;;3.90;;
22026;SDS011;11177;50.966;10.070;2023-02-28T01:51:26;5.93;;;3.92;;
22026;SDS011;11177;50.966;10.070;2023-02-28T01:54:00;6.72;;;3.97;;
22026;SDS011;11177;50.966;10.070;2023-02-28T01:56:30;6.13;;;3.85;;
22026;SDS011;11177;50.966;10.070;2023-02-28T01:58:59;6.18;;;4.18;;
22026;SDS011;11177;50.966;10.070;2023-02-28T02:01:26;7.57;;;4.53;;
22026;SDS011;11177;50.966;10.070;2023-02-28T02:03:55;6.85;;;4.40;;
22026;SDS011;11177;50.966;10.070;2023-02-28T02:06:31;5.97;;;4.05;;
22026;SDS011;11177;50.966;10.070;2023-02-28T02:09:01;7.88;;;3.50;;
22026;SDS011;11177;50.966;10.070;2023-02-28T02:11:29;6.30;;;4.00;;
22026;SDS011;11177;50.966;10.070;2023-02-28T02:14:07;5.00;;;3.63;;
22026;SDS011;11177;50.966;10.070;2023-02-28T02:17:02;5.67;;;4.00;;
22026;SDS011;11177;50.966;10.070;2023-02-28T02:25:58;5.03;;;3.13;;
22026;SDS011;11177;50.966;10.070;2023-02-28T02:28:46;7.60;;;3.45;;
22026;SDS011;11177;50.966;10.070;2023-02-28T02:34:53;7.20;;;3.58;;
22026;SDS011;11177;50.966;10.070;2023-02-28T02:37:38;6.20;;;3.47;;
22026;SDS011;11177;50.966;10.070;2023-02-28T02:40:11;6.05;;;3.53;;
22026;SDS011;11177;50.966;10.070;2023-02-28T02:45:22;5.20;;;3.30;;
22026;SDS011;11177;50.966;10.070;2023-02-28T02:47:51;4.50;;;3.50;;
22026;SDS011;11177;50.966;10.070;2023-02-28T02:50:22;6.07;;;3.10;;
22026;SDS011;11177;50.966;10.070;2023-02-28T02:52:52;5.67;;;3.33;;
22026;SDS011;11177;50.966;10.070;2023-02-28T02:55:22;6.80;;;3.53;;
22026;SDS011;11177;50.966;10.070;2023-02-28T02:57:51;4.60;;;3.33;;
22026;SDS011;11177;50.966;10.070;2023-02-28T03:00:21;4.20;;;2.85;;
22026;SDS011;11177;50.966;10.070;2023-02-28T03:02:52;9.77;;;3.40;;
22026;SDS011;11177;50.966;10.070;2023-02-28T03:05:24;4.70;;;3.00;;
22026;SDS011;11177;50.966;10.070;2023-02-28T03:07:53;6.25;;;3.00;;
22026;SDS011;11177;50.966;10.070;2023-02-28T03:10:30;5.80;;;3.28;;
22026;SDS011;11177;50.966;10.070;2023-02-28T03:13:09;4.68;;;3.20;;
22026;SDS011;11177;50.966;10.070;2023-02-28T03:16:28;5.45;;;2.72;;
22026;SDS011;11177;50.966;10.070;2023-02-28T03:19:13;3.78;;;2.97;;
22026;SDS011;11177;50.966;10.070;2023-02-28T03:25:37;4.75;;;3.08;;
22026;SDS011;11177;50.966;10.070;2023-02-28T03:31:31;5.68;;;3.30;;
22026;SDS011;11177;50.966;10.070;2023-02-28T03:34:10;5.07;;;3.28;;
22026;SDS011;11177;50.966;10.070;2023-02-28T03:36:39;5.93;;;3.53;;
22026;SDS011;11177;50.966;10.070;2023-02-28T03:39:22;4.10;;;3.17;;
22026;SDS011;11177;50.966;10.070;2023-02-28T03:41:57;5.00;;;3.20;;
22026;SDS011;11177;50.966;10.070;2023-02-28T03:44:30;4.68;;;3.15;;
22026;SDS011;11177;50.966;10.070;2023-02-28T03:47:00;5.07;;;3.58;;
22026;SDS011;11177;50.966;10.070;2023-02-28T03:49:32;7.63;;;3.40;;
22026;SDS011;11177;50.966;10.070;2023-02-28T03:52:01;4.07;;;3.30;;
22026;SDS011;11177;50.966;10.070;2023-02-28T03:54:33;7.63;;;3.55;;
22026;SDS011;11177;50.966;10.070;2023-02-28T03:59:54;4.40;;;3.20;;
22026;SDS011;11177;50.966;10.070;2023-02-28T04:02:26;4.28;;;3.15;;
22026;SDS011;11177;50.966;10.070;2023-02-28T04:04:54;4.32;;;2.92;;
22026;SDS011;11177;50.966;10.070;2023-02-28T04:07:21;3.92;;;2.95;;
22026;SDS011;11177;50.966;10.070;2023-02-28T04:09:47;4.55;;;3.17;;
22026;SDS011;11177;50.966;10.070;2023-02-28T04:12:14;4.25;;;3.13;;
22026;SDS011;11177;50.966;10.070;2023-02-28T04:14:41;4.00;;;2.97;;
22026;SDS011;11177;50.966;10.070;2023-02-28T04:17:07;5.22;;;2.90;;
22026;SDS011;11177;50.966;10.070;2023-02-28T04:19:34;3.55;;;2.80;;
22026;SDS011;11177;50.966;10.070;2023-02-28T04:22:01;4.68;;;3.20;;
22026;SDS011;11177;50.966;10.070;2023-02-28T04:24:28;6.63;;;3.15;;
22026;SDS011;11177;50.966;10.070;2023-02-28T04:26:55;4.80;;;3.10;;
22026;SDS011;11177;50.966;10.070;2023-02-28T04:29:24;5.35;;;2.83;;
22026;SDS011;11177;50.966;10.070;2023-02-28T04:31:55;3.10;;;2.55;;
22026;SDS011;11177;50.966;10.070;2023-02-28T04:34:26;4.57;;;2.83;;
22026;SDS011;11177;50.966;10.070;2023-02-28T04:36:54;3.20;;;2.90;;
22026;SDS011;11177;50.966;10.070;2023-02-28T04:39:38;5.20;;;3.13;;
22026;SDS011;11177;50.966;10.070;2023-02-28T04:42:05;3.08;;;2.40;;
22026;SDS011;11177;50.966;10.070;2023-02-28T04:44:32;4.43;;;3.00;;
22026;SDS011;11177;50.966;10.070;2023-02-28T04:46:58;6.07;;;3.30;;
22026;SDS011;11177;50.966;10.070;2023-02-28T04:49:25;5.22;;;2.92;;
22026;SDS011;11177;50.966;10.070;2023-02-28T04:51:52;3.83;;;2.65;;
22026;SDS011;11177;50.966;10.070;2023-02-28T04:54:19;3.70;;;2.70;;
22026;SDS011;11177;50.966;10.070;2023-02-28T04:56:46;4.57;;;2.83;;
22026;SDS011;11177;50.966;10.070;2023-02-28T04:59:16;4.03;;;2.95;;
22026;SDS011;11177;50.966;10.070;2023-02-28T05:01:45;4.88;;;3.25;;
22026;SDS011;11177;50.966;10.070;2023-02-28T05:04:13;3.67;;;2.88;;
22026;SDS011;11177;50.966;10.070;2023-02-28T05:06:40;5.20;;;2.78;;
22026;SDS011;11177;50.966;10.070;2023-02-28T05:09:07;8.45;;;3.03;;
22026;SDS011;11177;50.966;10.070;2023-02-28T05:11:33;5.03;;;2.97;;
22026;SDS011;11177;50.966;10.070;2023-02-28T05:14:02;4.35;;;2.75;;
22026;SDS011;11177;50.966;10.070;2023-02-28T05:16:30;4.10;;;2.95;;
22026;SDS011;11177;50.966;10.070;2023-02-28T05:18:57;4.00;;;2.92;;
22026;SDS011;11177;50.966;10.070;2023-02-28T05:21:31;4.03;;;3.03;;
22026;SDS011;11177;50.966;10.070;2023-02-28T05:24:03;5.20;;;3.30;;
22026;SDS011;11177;50.966;10.070;2023-02-28T05:26:34;4.38;;;3.08;;
22026;SDS011;11177;50.966;10.070;2023-02-28T05:29:05;5.03;;;3.20;;
22026;SDS011;11177;50.966;10.070;2023-02-28T05:31:32;3.45;;;2.78;;
22026;SDS011;11177;50.966;10.070;2023-02-28T05:33:59;10.57;;;2.70;;
22026;SDS011;11177;50.966;10.070;2023-02-28T05:36:26;4.25;;;3.08;;
22026;SDS011;11177;50.966;10.070;2023-02-28T05:38:53;3.50;;;2.88;;
22026;SDS011;11177;50.966;10.070;2023-02-28T05:41:19;4.13;;;3.10;;
22026;SDS011;11177;50.966;10.070;2023-02-28T05:43:46;6.80;;;2.65;;
22026;SDS011;11177;50.966;10.070;2023-02-28T05:46:14;5.88;;;2.55;;
22026;SDS011;11177;50.966;10.070;2023-02-28T05:48:41;3.67;;;2.78;;
22026;SDS011;11177;50.966;10.070;2023-02-28T05:51:09;4.13;;;2.65;;
22026;SDS011;11177;50.966;10.070;2023-02-28T05:53:36;4.65;;;3.00;;
22026;SDS011;11177;50.966;10.070;2023-02-28T05:56:03;4.32;;;2.90;;
22026;SDS011;11177;50.966;10.070;2023-02-28T05:58:30;5.35;;;3.55;;
22026;SDS011;11177;50.966;10.070;2023-02-28T06:00:57;5.18;;;3.17;;
22026;SDS011;11177;50.966;10.070;2023-02-28T06:03:25;5.53;;;3.30;;
22026;SDS011;11177;50.966;10.070;2023-02-28T06:05:52;3.92;;;3.03;;
22026;SDS011;11177;50.966;10.070;2023-02-28T06:08:19;4.95;;;3.05;;
22026;SDS011;11177;50.966;10.070;2023-02-28T06:10:45;4.60;;;3.10;;
22026;SDS011;11177;50.966;10.070;2023-02-28T06:13:12;3.60;;;2.58;;
22026;SDS011;11177;50.966;10.070;2023-02-28T06:15:39;4.57;;;3.15;;
22026;SDS011;11177;50.966;10.070;2023-02-28T06:18:06;4.15;;;3.15;;
22026;SDS011;11177;50.966;10.070;2023-02-28T06:20:32;4.20;;;3.35;;
22026;SDS011;11177;50.966;10.070;2023-02-28T06:22:59;5.55;;;3.03;;
22026;SDS011;11177;50.966;10.070;2023-02-28T06:25:26;3.05;;;2.60;;
22026;SDS011;11177;50.966;10.070;2023-02-28T06:27:54;3.85;;;2.88;;
22026;SDS011;11177;50.966;10.070;2023-02-28T06:30:21;5.57;;;3.25;;
22026;SDS011;11177;50.966;10.070;2023-02-28T06:32:51;13.52;;;3.10;;
22026;SDS011;11177;50.966;10.070;2023-02-28T06:35:18;9.27;;;3.40;;
22026;SDS011;11177;50.966;10.070;2023-02-28T06:37:45;4.65;;;3.22;;
22026;SDS011;11177;50.966;10.070;2023-02-28T06:40:13;6.50;;;3.72;;
22026;SDS011;11177;50.966;10.070;2023-02-28T06:42:40;4.45;;;3.08;;
22026;SDS011;11177;50.966;10.070;2023-02-28T06:45:08;4.85;;;3.05;;
22026;SDS011;11177;50.966;10.070;2023-02-28T06:47:39;5.15;;;3.38;;
22026;SDS011;11177;50.966;10.070;2023-02-28T06:50:07;4.57;;;3.30;;
22026;SDS011;11177;50.966;10.070;2023-02-28T06:52:35;7.05;;;3.25;;
22026;SDS011;11177;50.966;10.070;2023-02-28T06:55:07;5.75;;;3.30;;
22026;SDS011;11177;50.966;10.070;2023-02-28T06:57:35;5.75;;;3.65;;
22026;SDS011;11177;50.966;10.070;2023-02-28T07:00:06;6.00;;;3.47;;
22026;SDS011;11177;50.966;10.070;2023-02-28T07:02:35;6.90;;;3.60;;
22026;SDS011;11177;50.966;10.070;2023-02-28T07:05:02;11.65;;;5.13;;
22026;SDS011;11177;50.966;10.070;2023-02-28T07:07:30;9.57;;;4.78;;
22026;SDS011;11177;50.966;10.070;2023-02-28T07:09:57;8.05;;;4.18;;
22026;SDS011;11177;50.966;10.070;2023-02-28T07:12:23;7.10;;;3.58;;
22026;SDS011;11177;50.966;10.070;2023-02-28T07:14:50;6.28;;;3.75;;
22026;SDS011;11177;50.966;10.070;2023-02-28T07:17:17;5.03;;;3.72;;
22026;SDS011;11177;50.966;10.070;2023-02-28T07:19:44;4.40;;;3.50;;
22026;SDS011;11177;50.966;10.070;2023-02-28T07:22:11;4.60;;;3.05;;
22026;SDS011;11177;50.966;10.070;2023-02-28T07:24:40;4.55;;;3.45;;
22026;SDS011;11177;50.966;10.070;2023-02-28T07:27:07;5.82;;;3.70;;
22026;SDS011;11177;50.966;10.070;2023-02-28T07:29:34;4.97;;;3.30;;
22026;SDS011;11177;50.966;10.070;2023-02-28T07:32:01;4.95;;;3.38;;
22026;SDS011;11177;50.966;10.070;2023-02-28T07:34:28;7.80;;;3.35;;
22026;SDS011;11177;50.966;10.070;2023-02-28T07:36:54;7.18;;;3.47;;
22026;SDS011;11177;50.966;10.070;2023-02-28T07:39:22;5.15;;;3.75;;
22026;SDS011;11177;50.966;10.070;2023-02-28T07:41:48;5.93;;;3.42;;
22026;SDS011;11177;50.966;10.070;2023-02-28T07:44:15;5.57;;;3.88;;
22026;SDS011;11177;50.966;10.070;2023-02-28T07:46:42;6.30;;;3.88;;
22026;SDS011;11177;50.966;10.070;2023-02-28T07:49:09;7.30;;;3.97;;
22026;SDS011;11177;50.966;10.070;2023-02-28T07:51:36;7.55;;;4.28;;
22026;SDS011;11177;50.966;10.070;2023-02-28T07:54:03;6.18;;;3.58;;
22026;SDS011;11177;50.966;10.070;2023-02-28T07:56:30;5.88;;;4.13;;
22026;SDS011;11177;50.966;10.070;2023-02-28T07:58:57;7.25;;;3.72;;
22026;SDS011;11177;50.966;10.070;2023-02-28T08:01:24;5.57;;;3.60;;
22026;SDS011;11177;50.966;10.070;2023-02-28T08:03:50;6.68;;;4.20;;
22026;SDS011;11177;50.966;10.070;2023-02-28T08:06:18;6.80;;;3.97;;
22026;SDS011;11177;50.966;10.070;2023-02-28T08:08:47;8.85;;;3.95;;
22026;SDS011;11177;50.966;10.070;2023-02-28T08:11:14;7.20;;;4.00;;
22026;SDS011;11177;50.966;10.070;2023-02-28T08:13:42;5.25;;;3.65;;
22026;SDS011;11177;50.966;10.070;2023-02-28T08:16:11;8.80;;;4.70;;
22026;SDS011;11177;50.966;10.070;2023-02-28T08:18:38;7.25;;;4.82;;
22026;SDS011;11177;50.966;10.070;2023-02-28T08:21:08;6.40;;;3.85;;
22026;SDS011;11177;50.966;10.070;2023-02-28T08:23:36;7.80;;;4.60;;
22026;SDS011;11177;50.966;10.070;2023-02-28T08:26:03;6.88;;;4.78;;
22026;SDS011;11177;50.966;10.070;2023-02-28T08:28:30;7.18;;;4.80;;
22026;SDS011;11177;50.966;10.070;2023-02-28T08:30:57;7.97;;;4.10;;
22026;SDS011;11177;50.966;10.070;2023-02-28T08:33:25;6.45;;;3.97;;
22026;SDS011;11177;50.966;10.070;2023-02-28T08:35:52;8.55;;;4.22;;
22026;SDS011;11177;50.966;10.070;2023-02-28T08:38:21;7.47;;;4.18;;
22026;SDS011;11177;50.966;10.070;2023-02-28T08:40:48;9.15;;;4.50;;
22026;SDS011;11177;50.966;10.070;2023-02-28T08:43:15;9.52;;;5.28;;
22026;SDS011;11177;50.966;10.070;2023-02-28T08:45:42;7.50;;;4.88;;
22026;SDS011;11177;50.966;10.070;2023-02-28T08:48:09;8.15;;;4.45;;
22026;SDS011;11177;50.966;10.070;2023-02-28T08:50:36;7.60;;;4.20;;
22026;SDS011;11177;50.966;10.070;2023-02-28T08:53:02;8.90;;;4.78;;
22026;SDS011;11177;50.966;10.070;2023-02-28T08:55:29;7.38;;;4.68;;
22026;SDS011;11177;50.966;10.070;2023-02-28T08:57:57;8.18;;;4.60;;
22026;SDS011;11177;50.966;10.070;2023-02-28T09:00:25;7.72;;;4.57;;
22026;SDS011;11177;50.966;10.070;2023-02-28T09:02:52;7.40;;;4.65;;
22026;SDS011;11177;50.966;10.070;2023-02-28T09:05:19;6.10;;;3.83;;
22026;SDS011;11177;50.966;10.070;2023-02-28T09:07:45;6.13;;;4.45;;
22026;SDS011;11177;50.966;10.070;2023-02-28T09:10:12;7.15;;;4.20;;
22026;SDS011;11177;50.966;10.070;2023-02-28T09:12:39;6.03;;;3.90;;
22026;SDS011;11177;50.966;10.070;2023-02-28T09:15:06;5.90;;;4.00;;
22026;SDS011;11177;50.966;10.070;2023-02-28T09:17:33;6.90;;;3.83;;
22026;SDS011;11177;50.966;10.070;2023-02-28T09:20:00;5.40;;;3.85;;
22026;SDS011;11177;50.966;10.070;2023-02-28T09:22:27;6.85;;;3.58;;
22026;SDS011;11177;50.966;10.070;2023-02-28T09:24:53;6.47;;;3.85;;
22026;SDS011;11177;50.966;10.070;2023-02-28T09:27:20;5.57;;;3.63;;
22026;SDS011;11177;50.966;10.070;2023-02-28T09:29:47;7.30;;;3.78;;
22026;SDS011;11177;50.966;10.070;2023-02-28T09:32:13;8.15;;;3.72;;
22026;SDS011;11177;50.966;10.070;2023-02-28T09:34:40;5.47;;;3.97;;
22026;SDS011;11177;50.966;10.070;2023-02-28T09:37:07;7.05;;;3.90;;
22026;SDS011;11177;50.966;10.070;2023-02-28T09:39:34;5.85;;;3.75;;
22026;SDS011;11177;50.966;10.070;2023-02-28T09:42:01;5.85;;;3.75;;
22026;SDS011;11177;50.966;10.070;2023-02-28T09:44:30;7.88;;;3.80;;
22026;SDS011;11177;50.966;10.070;2023-02-28T09:52:56;7.45;;;3.88;;
22026;SDS011;11177;50.966;10.070;2023-02-28T09:55:28;5.75;;;3.83;;
22026;SDS011;11177;50.966;10.070;2023-02-28T09:58:15;6.60;;;3.97;;
22026;SDS011;11177;50.966;10.070;2023-02-28T10:04:35;6.90;;;3.92;;
22026;SDS011;11177;50.966;10.070;2023-02-28T10:10:27;9.48;;;4.30;;
22026;SDS011;11177;50.966;10.070;2023-02-28T10:12:57;10.55;;;4.82;;
22026;SDS011;11177;50.966;10.070;2023-02-28T10:15:41;8.70;;;4.47;;
22026;SDS011;11177;50.966;10.070;2023-02-28T10:18:24;13.27;;;6.15;;
22026;SDS011;11177;50.966;10.070;2023-02-28T10:20:55;9.00;;;4.93;;
22026;SDS011;11177;50.966;10.070;2023-02-28T10:23:24;8.75;;;5.18;;
22026;SDS011;11177;50.966;10.070;2023-02-28T10:25:56;7.50;;;4.22;;
22026;SDS011;11177;50.966;10.070;2023-02-28T10:28:25;8.05;;;4.38;;
22026;SDS011;11177;50.966;10.070;2023-02-28T10:30:59;6.45;;;4.53;;
22026;SDS011;11177;50.966;10.070;2023-02-28T10:33:31;7.82;;;4.75;;
22026;SDS011;11177;50.966;10.070;2023-02-28T10:35:58;11.85;;;4.50;;
22026;SDS011;11177;50.966;10.070;2023-02-28T10:38:27;8.77;;;5.05;;
22026;SDS011;11177;50.966;10.070;2023-02-28T10:41:09;7.53;;;4.68;;
22026;SDS011;11177;50.966;10.070;2023-02-28T10:43:45;8.52;;;4.72;;
22026;SDS011;11177;50.966;10.070;2023-02-28T10:46:16;9.23;;;5.13;;
22026;SDS011;11177;50.966;10.070;2023-02-28T10:49:02;6.15;;;4.40;;
22026;SDS011;11177;50.966;10.070;2023-02-28T10:51:37;7.75;;;4.45;;
22026;SDS011;11177;50.966;10.070;2023-02-28T10:54:06;8.88;;;4.53;;
22026;SDS011;11177;50.966;10.070;2023-02-28T10:56:41;7.75;;;4.57;;
22026;SDS011;11177;50.966;10.070;2023-02-28T10:59:30;15.45;;;5.63;;
22026;SDS011;11177;50.966;10.070;2023-02-28T11:01:56;15.38;;;6.35;;
22026;SDS011;11177;50.966;10.070;2023-02-28T11:04:34;11.95;;;5.80;;
22026;SDS011;11177;50.966;10.070;2023-02-28T11:07:16;8.98;;;4.78;;
22026;SDS011;11177;50.966;10.070;2023-02-28T11:09:48;7.30;;;4.43;;
22026;SDS011;11177;50.966;10.070;2023-02-28T11:12:28;6.93;;;4.60;;
22026;SDS011;11177;50.966;10.070;2023-02-28T11:14:58;9.05;;;5.30;;
22026;SDS011;11177;50.966;10.070;2023-02-28T11:17:28;10.82;;;5.00;;
22026;SDS011;11177;50.966;10.070;2023-02-28T11:19:58;8.02;;;4.97;;
22026;SDS011;11177;50.966;10.070;2023-02-28T11:22:30;7.90;;;4.93;;
22026;SDS011;11177;50.966;10.070;2023-02-28T11:24:59;8.02;;;4.70;;
22026;SDS011;11177;50.966;10.070;2023-02-28T11:27:42;9.13;;;4.97;;
22026;SDS011;11177;50.966;10.070;2023-02-28T11:30:26;6.55;;;4.30;;
22026;SDS011;11177;50.966;10.070;2023-02-28T11:32:55;7.03;;;4.10;;
22026;SDS011;11177;50.966;10.070;2023-02-28T11:35:27;8.40;;;4.72;;
22026;SDS011;11177;50.966;10.070;2023-02-28T11:37:56;7.88;;;4.30;;
22026;SDS011;11177;50.966;10.070;2023-02-28T11:40:31;8.35;;;4.32;;
22026;SDS011;11177;50.966;10.070;2023-02-28T11:49:25;6.35;;;4.25;;
22026;SDS011;11177;50.966;10.070;2023-02-28T11:52:33;10.30;;;4.10;;
22026;SDS011;11177;50.966;10.070;2023-02-28T12:01:19;8.88;;;4.57;;
22026;SDS011;11177;50.966;10.070;2023-02-28T12:10:15;7.97;;;4.57;;
22026;SDS011;11177;50.966;10.070;2023-02-28T12:21:37;8.68;;;4.60;;
22026;SDS011;11177;50.966;10.070;2023-02-28T12:25:34;8.98;;;5.10;;
22026;SDS011;11177;50.966;10.070;2023-02-28T12:27:00;6.80;;;4.40;;
22026;SDS011;11177;50.966;10.070;2023-02-28T12:29:31;7.43;;;5.22;;
22026;SDS011;11177;50.966;10.070;2023-02-28T12:34:38;7.40;;;4.10;;
22026;SDS011;11177;50.966;10.070;2023-02-28T12:37:25;8.23;;;4.22;;
22026;SDS011;11177;50.966;10.070;2023-02-28T12:40:00;10.57;;;5.05;;
22026;SDS011;11177;50.966;10.070;2023-02-28T12:42:33;7.82;;;4.75;;
22026;SDS011;11177;50.966;10.070;2023-02-28T12:45:23;10.50;;;5.60;;
22026;SDS011;11177;50.966;10.070;2023-02-28T12:48:00;8.43;;;5.55;;
22026;SDS011;11177;50.966;10.070;2023-02-28T12:50:30;11.65;;;5.97;;
22026;SDS011;11177;50.966;10.070;2023-02-28T12:53:06;11.25;;;5.93;;
22026;SDS011;11177;50.966;10.070;2023-02-28T12:55:52;9.70;;;5.07;;
22026;SDS011;11177;50.966;10.070;2023-02-28T13:01:34;10.60;;;5.40;;
22026;SDS011;11177;50.966;10.070;2023-02-28T13:04:26;7.85;;;5.30;;
22026;SDS011;11177;50.966;10.070;2023-02-28T13:09:59;10.60;;;4.72;;
22026;SDS011;11177;50.966;10.070;2023-02-28T13:12:27;8.90;;;5.07;;
22026;SDS011;11177;50.966;10.070;2023-02-28T13:15:02;7.07;;;5.07;;
22026;SDS011;11177;50.966;10.070;2023-02-28T13:17:38;9.52;;;4.90;;
22026;SDS011;11177;50.966;10.070;2023-02-28T13:20:14;10.63;;;5.57;;
22026;SDS011;11177;50.966;10.070;2023-02-28T13:22:50;7.25;;;4.78;;
22026;SDS011;11177;50.966;10.070;2023-02-28T13:28:09;11.52;;;5.72;;
22026;SDS011;11177;50.966;10.070;2023-02-28T13:32:32;12.18;;;5.53;;
22026;SDS011;11177;50.966;10.070;2023-02-28T13:34:39;8.98;;;5.63;;
22026;SDS011;11177;50.966;10.070;2023-02-28T13:36:39;11.20;;;5.80;;
22026;SDS011;11177;50.966;10.070;2023-02-28T13:42:22;14.32;;;5.72;;
22026;SDS011;11177;50.966;10.070;2023-02-28T13:50:29;11.90;;;6.18;;
22026;SDS011;11177;50.966;10.070;2023-02-28T13:56:27;9.95;;;5.60;;
22026;SDS011;11177;50.966;10.070;2023-02-28T14:02:17;7.97;;;5.70;;
22026;SDS011;11177;50.966;10.070;2023-02-28T14:07:40;8.93;;;5.20;;
22026;SDS011;11177;50.966;10.070;2023-02-28T14:10:21;6.47;;;4.65;;
22026;SDS011;11177;50.966;10.070;2023-02-28T14:15:38;8.13;;;5.07;;
22026;SDS011;11177;50.966;10.070;2023-02-28T14:21:14;9.82;;;5.47;;
22026;SDS011;11177;50.966;10.070;2023-02-28T14:23:50;8.93;;;5.50;;
22026;SDS011;11177;50.966;10.070;2023-02-28T14:29:43;8.65;;;5.72;;
22026;SDS011;11177;50.966;10.070;2023-02-28T14:32:54;9.35;;;6.15;;
22026;SDS011;11177;50.966;10.070;2023-02-28T14:35:39;11.45;;;5.75;;
22026;SDS011;11177;50.966;10.070;2023-02-28T14:38:14;9.77;;;6.30;;
22026;SDS011;11177;50.966;10.070;2023-02-28T14:40:44;8.85;;;5.25;;
22026;SDS011;11177;50.966;10.070;2023-02-28T14:43:19;10.13;;;6.18;;
22026;SDS011;11177;50.966;10.070;2023-02-28T14:45:49;7.85;;;5.63;;
22026;SDS011;11177;50.966;10.070;2023-02-28T14:48:17;9.52;;;5.90;;
22026;SDS011;11177;50.966;10.070;2023-02-28T14:50:52;12.55;;;6.18;;
22026;SDS011;11177;50.966;10.070;2023-02-28T14:53:21;9.13;;;6.18;;
22026;SDS011;11177;50.966;10.070;2023-02-28T14:55:49;10.57;;;6.18;;
22026;SDS011;11177;50.966;10.070;2023-02-28T14:58:23;11.85;;;6.00;;
22026;SDS011;11177;50.966;10.070;2023-02-28T15:00:50;9.30;;;6.03;;
22026;SDS011;11177;50.966;10.070;2023-02-28T15:03:21;7.10;;;5.40;;
22026;SDS011;11177;50.966;10.070;2023-02-28T15:05:56;9.80;;;5.68;;
22026;SDS011;11177;50.966;10.070;2023-02-28T15:08:25;8.10;;;5.30;;
22026;SDS011;11177;50.966;10.070;2023-02-28T15:10:59;7.55;;;5.43;;
22026;SDS011;11177;50.966;10.070;2023-02-28T15:13:35;10.18;;;5.95;;
22026;SDS011;11177;50.966;10.070;2023-02-28T15:16:13;8.10;;;6.22;;
22026;SDS011;11177;50.966;10.070;2023-02-28T15:18:52;11.15;;;6.05;;
22026;SDS011;11177;50.966;10.070;2023-02-28T15:21:25;10.50;;;6.28;;
22026;SDS011;11177;50.966;10.070;2023-02-28T15:24:19;12.23;;;6.22;;
22026;SDS011;11177;50.966;10.070;2023-02-28T15:26:54;9.80;;;6.30;;
22026;SDS011;11177;50.966;10.070;2023-02-28T15:29:24;15.48;;;6.47;;
22026;SDS011;11177;50.966;10.070;2023-02-28T15:31:56;11.98;;;7.63;;
22026;SDS011;11177;50.966;10.070;2023-02-28T15:34:38;13.75;;;7.07;;
22026;SDS011;11177;50.966;10.070;2023-02-28T15:40:17;9.77;;;6.13;;
22026;SDS011;11177;50.966;10.070;2023-02-28T15:43:06;10.90;;;6.10;;
22026;SDS011;11177;50.966;10.070;2023-02-28T15:45:50;11.35;;;7.47;;
22026;SDS011;11177;50.966;10.070;2023-02-28T15:48:29;20.98;;;10.85;;
22026;SDS011;11177;50.966;10.070;2023-02-28T15:51:00;25.00;;;11.38;;
22026;SDS011;11177;50.966;10.070;2023-02-28T15:53:30;17.02;;;9.35;;
22026;SDS011;11177;50.966;10.070;2023-02-28T15:56:21;18.45;;;10.23;;
22026;SDS011;11177;50.966;10.070;2023-02-28T15:58:53;9.68;;;7.30;;
22026;SDS011;11177;50.966;10.070;2023-02-28T16:01:25;9.98;;;6.28;;
22026;SDS011;11177;50.966;10.070;2023-02-28T16:03:55;10.82;;;6.47;;
22026;SDS011;11177;50.966;10.070;2023-02-28T16:06:44;13.65;;;6.70;;
22026;SDS011;11177;50.966;10.070;2023-02-28T16:09:13;12.98;;;5.82;;
22026;SDS011;11177;50.966;10.070;2023-02-28T16:11:47;14.15;;;7.43;;
22026;SDS011;11177;50.966;10.070;2023-02-28T16:14:16;12.60;;;7.30;;
22026;SDS011;11177;50.966;10.070;2023-02-28T16:17:02;18.70;;;10.02;;
22026;SDS011;11177;50.966;10.070;2023-02-28T16:19:33;14.27;;;8.18;;
22026;SDS011;11177;50.966;10.070;2023-02-28T16:22:00;13.07;;;7.40;;
22026;SDS011;11177;50.966;10.070;2023-02-28T16:24:27;21.33;;;10.82;;
22026;SDS011;11177;50.966;10.070;2023-02-28T16:26:54;18.45;;;10.05;;
22026;SDS011;11177;50.966;10.070;2023-02-28T16:29:29;14.15;;;7.90;;
22026;SDS011;11177;50.966;10.070;2023-02-28T16:31:59;13.68;;;7.60;;
22026;SDS011;11177;50.966;10.070;2023-02-28T16:34:26;11.05;;;7.38;;
22026;SDS011;11177;50.966;10.070;2023-02-28T16:36:53;13.77;;;8.02;;
22026;SDS011;11177;50.966;10.070;2023-02-28T16:39:20;15.23;;;8.35;;
22026;SDS011;11177;50.966;10.070;2023-02-28T16:41:47;22.25;;;12.05;;